createdAt,value
2023-03-17T00:01:43.981Z,71.20
2023-03-17T00:06:46.972Z,71.50
2023-03-17T00:11:51.745Z,71.60
2023-03-17T00:16:54.400Z,71.80
2023-03-17T00:21:57.432Z,72.10
2023-03-17T00:27:01.182Z,73.20
2023-03-17T00:32:04.079Z,72.50
2023-03-17T00:37:06.214Z,72.50
2023-03-17T00:42:10.125Z,72.70
2023-03-17T00:47:12.425Z,72.80
2023-03-17T00:52:14.604Z,72.80
2023-03-17T00:57:18.213Z,72.90
2023-03-17T01:02:20.424Z,73.10
2023-03-17T01:07:22.663Z,73.10
2023-03-17T01:12:26.317Z,73.10
2023-03-17T01:17:28.463Z,73.30
2023-03-17T01:22:30.621Z,73.20
2023-03-17T01:27:36.332Z,73.30
2023-03-17T01:32:38.482Z,73.50
2023-03-17T01:37:40.869Z,73.50
2023-03-17T01:42:48.045Z,73.30
2023-03-17T01:47:50.203Z,73.30
2023-03-17T01:52:52.628Z,73.40
2023-03-17T01:57:56.364Z,73.40
2023-03-17T02:02:58.491Z,73.40
2023-03-17T02:08:00.596Z,73.30
2023-03-17T02:13:05.155Z,73.30
2023-03-17T02:18:08.388Z,73.30
2023-03-17T02:23:12.883Z,73.40
2023-03-17T02:28:18.821Z,73.40
2023-03-17T02:33:20.993Z,73.40
2023-03-17T02:38:24.600Z,73.40
2023-03-17T02:43:26.881Z,73.50
2023-03-17T02:48:29.150Z,73.70
2023-03-17T02:53:32.709Z,73.70
2023-03-17T02:58:34.843Z,73.70
2023-03-17T03:03:37.116Z,73.70
2023-03-17T03:08:40.690Z,73.70
2023-03-17T03:13:42.908Z,73.80
2023-03-17T03:18:45.064Z,73.60
2023-03-17T03:23:48.670Z,73.50
2023-03-17T03:28:50.960Z,73.50
2023-03-17T03:33:53.460Z,73.40
2023-03-17T03:38:57.092Z,73.40
2023-03-17T03:43:59.377Z,73.40
2023-03-17T03:49:01.535Z,73.40
2023-03-17T03:54:05.112Z,73.50
2023-03-17T03:59:07.649Z,73.70
2023-03-17T04:04:09.797Z,74.00
2023-03-17T04:09:13.424Z,74.00
2023-03-17T04:14:16.690Z,73.90
2023-03-17T04:19:18.773Z,73.90
2023-03-17T04:24:22.250Z,73.90
2023-03-17T04:29:24.397Z,73.90
2023-03-17T04:34:26.639Z,73.90
2023-03-17T04:39:30.160Z,73.90
2023-03-17T04:44:32.768Z,73.80
2023-03-17T04:49:34.976Z,73.80
2023-03-17T04:54:38.609Z,73.70
2023-03-17T04:59:40.763Z,73.70
2023-03-17T05:04:43.251Z,73.60
2023-03-17T05:09:46.758Z,73.50
2023-03-17T05:14:48.931Z,73.60
2023-03-17T05:19:51.154Z,73.50
2023-03-17T05:24:54.731Z,73.50
2023-03-17T05:29:56.937Z,73.50
2023-03-17T05:34:59.140Z,73.50
2023-03-17T05:40:02.693Z,73.40
2023-03-17T05:45:05.506Z,73.50
2023-03-17T05:50:08.487Z,73.40
2023-03-17T05:55:12.280Z,73.40
2023-03-17T06:00:15.601Z,73.50
2023-03-17T06:05:18.086Z,73.60
2023-03-17T06:10:21.845Z,73.80
2023-03-17T06:15:25.788Z,73.90
2023-03-17T06:20:27.998Z,74.00
2023-03-17T06:25:31.741Z,74.00
2023-03-17T06:30:35.499Z,74.10
2023-03-17T06:35:37.795Z,74.30
2023-03-17T06:40:41.510Z,74.30
2023-03-17T06:45:43.639Z,74.20
2023-03-17T06:50:46.194Z,73.90
2023-03-17T06:55:49.749Z,73.80
2023-03-17T07:00:51.997Z,73.80
2023-03-17T07:05:54.259Z,74.00
2023-03-17T07:10:57.785Z,74.30
2023-03-17T07:16:00.660Z,73.70
2023-03-17T07:21:03.559Z,73.00
2023-03-17T07:26:07.444Z,72.70
2023-03-17T07:31:09.775Z,72.90
2023-03-17T07:36:11.994Z,73.60
2023-03-17T07:41:15.569Z,73.50
2023-03-17T07:46:17.887Z,74.00
2023-03-17T07:51:22.217Z,72.70
2023-03-17T07:56:25.757Z,71.50
2023-03-17T08:01:29.187Z,70.70
2023-03-17T08:06:31.360Z,70.30
2023-03-17T08:11:35.234Z,70.60
2023-03-17T08:16:37.539Z,71.50
2023-03-17T08:21:39.829Z,73.20
2023-03-17T08:26:43.417Z,73.80
2023-03-17T08:31:46.748Z,71.60
2023-03-17T08:36:49.125Z,70.70
2023-03-17T08:41:53.176Z,67.50
2023-03-17T08:46:55.456Z,65.20
2023-03-17T08:51:57.728Z,63.10
2023-03-17T08:57:01.385Z,61.50
2023-03-17T09:02:03.783Z,58.50
2023-03-17T09:07:07.745Z,58.40
2023-03-17T09:12:13.306Z,59.50
2023-03-17T09:17:16.083Z,56.80
2023-03-17T09:22:18.742Z,58.00
2023-03-17T09:27:22.400Z,58.30
2023-03-17T09:32:24.688Z,56.40
2023-03-17T09:37:26.863Z,56.60
2023-03-17T09:42:47.283Z,56.40
2023-03-17T09:48:03.677Z,55.10
2023-03-17T09:53:12.715Z,56.10
2023-03-17T09:58:16.906Z,55.80
2023-03-17T10:03:19.664Z,55.50
2023-03-17T10:08:31.604Z,56.60
2023-03-17T10:13:51.594Z,55.90
2023-03-17T10:18:56.688Z,53.90
2023-03-17T10:23:59.048Z,52.30
2023-03-17T10:29:03.393Z,52.70
2023-03-17T10:34:14.213Z,50.50
2023-03-17T10:39:20.596Z,51.10
2023-03-17T10:44:44.075Z,50.50
2023-03-17T10:49:47.110Z,50.00
2023-03-17T10:54:50.345Z,48.90
2023-03-17T10:59:56.655Z,48.40
2023-03-17T11:05:07.184Z,47.80
2023-03-17T11:10:23.320Z,48.00
2023-03-17T11:15:32.141Z,46.10
2023-03-17T11:20:54.963Z,46.90
2023-03-17T11:26:08.455Z,46.10
2023-03-17T11:31:22.825Z,45.80
2023-03-17T11:36:38.940Z,45.10
2023-03-17T11:41:59.530Z,46.00
2023-03-17T11:47:12.553Z,44.90
2023-03-17T11:52:22.449Z,45.00
2023-03-17T11:57:29.861Z,44.90
2023-03-17T12:02:40.882Z,44.60
2023-03-17T12:07:47.760Z,44.60
2023-03-17T12:12:55.495Z,45.20
2023-03-17T12:18:05.297Z,45.30
2023-03-17T12:23:14.440Z,45.00
2023-03-17T12:28:21.482Z,46.30
2023-03-17T12:33:31.127Z,46.00
2023-03-17T12:38:38.391Z,45.30
2023-03-17T12:43:53.012Z,46.70
2023-03-17T12:49:14.331Z,44.80
2023-03-17T12:54:22.033Z,44.60
2023-03-17T12:59:26.216Z,45.00
2023-03-17T13:04:32.476Z,45.30
2023-03-17T13:09:47.998Z,45.10
2023-03-17T13:14:52.738Z,44.90
2023-03-17T13:20:12.709Z,45.20
2023-03-17T13:25:30.941Z,45.00
2023-03-17T13:30:55.492Z,45.40
2023-03-17T13:36:28.706Z,45.80
2023-03-17T13:41:52.751Z,46.30
2023-03-17T13:46:55.476Z,46.70
2023-03-17T13:52:04.743Z,47.60
2023-03-17T13:57:25.883Z,47.70
2023-03-17T14:02:33.354Z,47.90
2023-03-17T14:07:48.541Z,48.40
2023-03-17T14:12:56.821Z,48.50
2023-03-17T14:18:04.561Z,48.80
2023-03-17T14:23:09.909Z,48.80
2023-03-17T14:28:16.902Z,48.60
2023-03-17T14:33:25.501Z,48.80
2023-03-17T14:38:30.861Z,48.60
2023-03-17T14:43:35.031Z,48.70
2023-03-17T14:48:40.944Z,48.60
2023-03-17T14:53:44.937Z,48.60
2023-03-17T14:58:52.376Z,49.00
2023-03-17T15:03:56.604Z,49.20
2023-03-17T15:09:02.636Z,49.50
2023-03-17T15:14:16.255Z,49.70
2023-03-17T15:19:22.927Z,49.90
2023-03-17T15:24:44.321Z,50.50
2023-03-17T15:29:47.030Z,50.60
2023-03-17T15:34:51.147Z,50.90
2023-03-17T15:39:55.697Z,50.60
2023-03-17T15:44:58.221Z,50.40
2023-03-17T15:50:11.277Z,50.60
2023-03-17T15:55:21.588Z,50.80
2023-03-17T16:00:27.465Z,51.30
2023-03-17T16:05:32.445Z,51.90
2023-03-17T16:10:36.166Z,52.50
2023-03-17T16:15:41.484Z,52.50
2023-03-17T16:20:46.013Z,52.60
2023-03-17T16:25:50.301Z,52.50
2023-03-17T16:30:54.545Z,52.40
2023-03-17T16:35:56.990Z,52.50
2023-03-17T16:41:06.821Z,52.50
2023-03-17T16:46:11.840Z,52.80
2023-03-17T16:51:14.058Z,53.10
2023-03-17T16:56:20.804Z,53.30
2023-03-17T17:01:25.765Z,53.70
2023-03-17T17:06:28.008Z,53.80
2023-03-17T17:11:31.673Z,53.90
2023-03-17T17:16:36.192Z,54.20
2023-03-17T17:21:38.324Z,54.70
2023-03-17T17:26:41.960Z,54.70
2023-03-17T17:31:44.203Z,55.40
2023-03-17T17:36:46.352Z,55.30
2023-03-17T17:41:49.898Z,55.60
2023-03-17T17:46:52.018Z,56.00
2023-03-17T17:51:54.277Z,55.90
2023-03-17T17:56:57.951Z,56.30
2023-03-17T18:02:02.464Z,56.80
2023-03-17T18:07:06.613Z,56.70
2023-03-17T18:12:13.118Z,56.60
2023-03-17T18:17:15.573Z,57.40
2023-03-17T18:22:17.667Z,57.10
2023-03-17T18:27:21.382Z,57.40
2023-03-17T18:32:24.211Z,57.80
2023-03-17T18:37:26.504Z,57.80
2023-03-17T18:42:30.104Z,58.40
2023-03-17T18:47:35.165Z,59.10
2023-03-17T18:52:44.376Z,59.10
2023-03-17T18:57:48.158Z,59.60
2023-03-17T19:02:50.296Z,59.30
2023-03-17T19:07:52.788Z,59.40
2023-03-17T19:12:56.363Z,59.50
2023-03-17T19:17:58.532Z,59.60
2023-03-17T19:23:00.968Z,59.70
2023-03-17T19:28:04.691Z,59.70
2023-03-17T19:33:06.886Z,59.60
2023-03-17T19:38:09.070Z,59.70
2023-03-17T19:43:13.235Z,60.10
2023-03-17T19:48:15.545Z,60.60
2023-03-17T19:53:17.791Z,60.40
2023-03-17T19:58:21.312Z,60.30
2023-03-17T20:03:26.323Z,60.50
2023-03-17T20:08:29.616Z,60.80
2023-03-17T20:13:35.459Z,60.10
2023-03-17T20:18:37.923Z,60.40
2023-03-17T20:23:40.091Z,60.50
2023-03-17T20:28:43.612Z,60.20
2023-03-17T20:33:45.844Z,60.70
2023-03-17T20:38:48.054Z,60.70
2023-03-17T20:43:51.657Z,60.90
2023-03-17T20:48:53.753Z,60.80
2023-03-17T20:53:55.902Z,60.70
2023-03-17T20:59:00.098Z,60.80
2023-03-17T21:04:02.534Z,61.00
2023-03-17T21:09:05.161Z,62.00
2023-03-17T21:14:08.738Z,61.70
2023-03-17T21:19:13.399Z,62.40
2023-03-17T21:24:25.051Z,62.80
2023-03-17T21:29:30.065Z,63.30
2023-03-17T21:34:32.806Z,62.90
2023-03-17T21:39:35.067Z,63.10
2023-03-17T21:44:39.109Z,62.80
2023-03-17T21:49:41.288Z,62.70
2023-03-17T21:54:43.430Z,62.60
2023-03-17T21:59:47.211Z,62.70
2023-03-17T22:04:49.784Z,63.10
2023-03-17T22:09:53.438Z,63.30
2023-03-17T22:14:58.020Z,63.30
2023-03-17T22:20:00.161Z,63.40
2023-03-17T22:25:03.010Z,63.00
2023-03-17T22:30:07.547Z,63.00
2023-03-17T22:35:09.824Z,63.40
2023-03-17T22:40:12.373Z,63.20
2023-03-17T22:45:15.979Z,63.70
2023-03-17T22:50:18.432Z,64.00
2023-03-17T22:55:20.540Z,64.10
2023-03-17T23:00:24.231Z,65.20
2023-03-17T23:05:26.445Z,64.80
2023-03-17T23:10:28.622Z,64.80
2023-03-17T23:15:32.300Z,65.10
2023-03-17T23:20:34.678Z,65.40
2023-03-17T23:25:37.518Z,65.30
2023-03-17T23:30:41.177Z,65.50
2023-03-17T23:35:43.476Z,65.80
2023-03-17T23:40:45.911Z,65.60
2023-03-17T23:45:51.351Z,65.80
2023-03-17T23:50:54.209Z,66.00
2023-03-17T23:55:56.244Z,66.00
